createdAt,value
2018-07-09T00:00:42.461Z,97.00
2018-07-09T00:03:11.905Z,97.00
2018-07-09T00:05:42.553Z,97.00
2018-07-09T00:08:12.038Z,97.00
2018-07-09T00:10:52.431Z,97.00
2018-07-09T00:13:21.451Z,97.00
2018-07-09T00:15:49.878Z,97.00
2018-07-09T00:18:18.351Z,97.00
2018-07-09T00:20:46.793Z,97.00
2018-07-09T00:23:15.716Z,97.00
2018-07-09T00:25:44.624Z,97.00
2018-07-09T00:28:13.036Z,97.00
2018-07-09T00:30:41.464Z,97.00
2018-07-09T00:33:09.924Z,97.00
2018-07-09T00:35:38.470Z,97.00
2018-07-09T00:38:06.951Z,97.00
2018-07-09T00:40:35.465Z,97.00
2018-07-09T00:43:04.085Z,97.00
2018-07-09T00:45:32.880Z,97.00
2018-07-09T00:48:01.417Z,97.00
2018-07-09T00:50:30.037Z,97.00
2018-07-09T00:52:58.435Z,97.00
2018-07-09T00:55:27.115Z,97.00
2018-07-09T00:57:55.577Z,97.00
2018-07-09T01:00:24.235Z,97.00
2018-07-09T01:02:52.646Z,97.00
2018-07-09T01:05:21.067Z,97.00
2018-07-09T01:07:49.490Z,97.00
2018-07-09T01:10:18.762Z,97.00
2018-07-09T01:12:47.211Z,97.00
2018-07-09T01:15:15.916Z,97.00
2018-07-09T01:17:44.369Z,97.00
2018-07-09T01:20:12.844Z,97.00
2018-07-09T01:22:41.478Z,97.00
2018-07-09T01:25:09.965Z,97.00
2018-07-09T01:27:38.423Z,97.00
2018-07-09T01:30:12.023Z,97.00
2018-07-09T01:32:40.720Z,97.00
2018-07-09T01:35:10.189Z,97.00
2018-07-09T01:37:39.214Z,97.00
2018-07-09T01:40:07.789Z,97.00
2018-07-09T01:42:36.458Z,97.00
2018-07-09T01:45:05.040Z,97.00
2018-07-09T01:47:33.430Z,97.00
2018-07-09T01:50:01.953Z,97.00
2018-07-09T01:52:30.765Z,97.00
2018-07-09T01:54:59.345Z,97.00
2018-07-09T01:57:27.884Z,97.00
2018-07-09T01:59:56.306Z,97.00
2018-07-09T02:02:25.611Z,97.00
2018-07-09T02:04:54.045Z,97.00
2018-07-09T02:07:22.434Z,97.00
2018-07-09T02:09:51.090Z,97.00
2018-07-09T02:12:19.505Z,97.00
2018-07-09T02:14:47.892Z,97.00
2018-07-09T02:17:16.299Z,97.00
2018-07-09T02:19:44.797Z,97.00
2018-07-09T02:22:13.324Z,97.00
2018-07-09T02:24:41.734Z,97.00
2018-07-09T02:27:10.504Z,97.00
2018-07-09T02:29:38.951Z,97.00
2018-07-09T02:32:07.400Z,97.00
2018-07-09T02:34:35.979Z,97.00
2018-07-09T02:37:04.360Z,97.00
2018-07-09T02:39:32.776Z,97.00
2018-07-09T02:42:01.227Z,97.00
2018-07-09T02:44:29.659Z,97.00
2018-07-09T02:46:58.157Z,97.00
2018-07-09T02:49:26.757Z,97.00
2018-07-09T02:51:55.224Z,97.00
2018-07-09T02:54:23.690Z,97.00
2018-07-09T02:56:52.729Z,97.00
2018-07-09T02:59:21.216Z,97.00
2018-07-09T03:01:49.731Z,97.00
2018-07-09T03:04:18.231Z,97.00
2018-07-09T03:06:46.613Z,97.00
2018-07-09T03:09:15.105Z,97.00
2018-07-09T03:11:43.523Z,97.00
2018-07-09T03:14:11.950Z,97.00
2018-07-09T03:16:40.331Z,97.00
2018-07-09T03:19:08.787Z,97.00
2018-07-09T03:21:37.169Z,97.00
2018-07-09T03:24:05.714Z,97.00
2018-07-09T03:26:34.509Z,97.00
2018-07-09T03:29:02.921Z,97.00
2018-07-09T03:31:31.479Z,97.00
2018-07-09T03:33:59.940Z,97.00
2018-07-09T03:36:28.835Z,97.00
2018-07-09T03:38:57.236Z,97.00
2018-07-09T03:41:25.585Z,97.00
2018-07-09T03:43:54.012Z,97.00
2018-07-09T03:46:22.415Z,97.00
2018-07-09T03:48:50.769Z,97.00
2018-07-09T03:51:19.187Z,97.00
2018-07-09T03:53:47.571Z,97.00
2018-07-09T03:56:15.964Z,97.00
2018-07-09T03:58:44.350Z,97.00
2018-07-09T04:01:12.808Z,97.00
2018-07-09T04:03:41.177Z,97.00
2018-07-09T04:06:09.589Z,97.00
2018-07-09T04:08:38.582Z,97.00
2018-07-09T04:13:35.632Z,97.00
2018-07-09T04:16:04.016Z,97.00
2018-07-09T04:18:32.392Z,97.00
2018-07-09T04:21:00.854Z,97.00
2018-07-09T04:23:29.231Z,97.00
2018-07-09T04:25:57.578Z,97.00
2018-07-09T04:28:25.963Z,97.00
2018-07-09T04:30:54.506Z,97.00
2018-07-09T04:35:51.359Z,97.00
2018-07-09T04:38:19.735Z,97.00
2018-07-09T04:40:49.353Z,97.00
2018-07-09T04:43:17.796Z,97.00
2018-07-09T04:45:46.106Z,97.00
2018-07-09T04:48:15.096Z,97.00
2018-07-09T04:50:43.959Z,97.00
2018-07-09T04:53:12.880Z,97.00
2018-07-09T04:55:41.320Z,97.00
2018-07-09T04:58:10.001Z,97.00
2018-07-09T05:00:38.758Z,97.00
2018-07-09T05:03:07.100Z,97.00
2018-07-09T05:05:36.195Z,97.00
2018-07-09T05:08:05.283Z,97.00
2018-07-09T05:10:33.731Z,97.00
2018-07-09T05:13:02.415Z,97.00
2018-07-09T05:15:30.760Z,97.00
2018-07-09T05:17:59.077Z,97.00
2018-07-09T05:20:27.581Z,97.00
2018-07-09T05:22:56.221Z,97.00
2018-07-09T05:25:24.658Z,97.00
2018-07-09T05:27:53.104Z,97.00
2018-07-09T05:30:21.708Z,97.00
2018-07-09T05:32:50.067Z,97.00
2018-07-09T05:35:18.529Z,97.00
2018-07-09T05:37:46.959Z,97.00
2018-07-09T05:40:15.649Z,97.00
2018-07-09T05:42:44.096Z,97.00
2018-07-09T05:45:12.473Z,97.00
2018-07-09T05:47:40.909Z,97.00
2018-07-09T05:50:09.873Z,97.00
2018-07-09T05:52:38.227Z,97.00
2018-07-09T05:55:06.922Z,97.00
2018-07-09T05:57:35.302Z,97.00
2018-07-09T06:00:04.172Z,96.90
2018-07-09T06:02:32.808Z,96.10
2018-07-09T06:05:01.289Z,95.80
2018-07-09T06:07:29.858Z,95.20
2018-07-09T06:09:58.318Z,94.50
2018-07-09T06:12:26.704Z,94.20
2018-07-09T06:14:55.100Z,93.60
2018-07-09T06:17:23.571Z,93.40
2018-07-09T06:19:51.925Z,92.80
2018-07-09T06:22:20.368Z,92.10
2018-07-09T06:24:48.765Z,92.10
2018-07-09T06:27:17.182Z,92.10
2018-07-09T06:29:45.544Z,92.40
2018-07-09T06:32:13.892Z,91.80
2018-07-09T06:34:42.511Z,91.60
2018-07-09T06:37:11.033Z,91.20
2018-07-09T06:39:39.643Z,90.20
2018-07-09T06:42:08.083Z,89.20
2018-07-09T06:44:36.517Z,87.60
2018-07-09T06:47:04.856Z,87.50
2018-07-09T06:49:33.243Z,86.90
2018-07-09T06:52:01.670Z,86.80
2018-07-09T06:54:30.550Z,86.70
2018-07-09T06:56:59.464Z,85.90
2018-07-09T06:59:28.256Z,86.30
2018-07-09T07:01:56.856Z,85.60
2018-07-09T07:04:25.863Z,85.10
2018-07-09T07:06:54.283Z,85.10
2018-07-09T07:09:22.773Z,85.30
2018-07-09T07:11:51.508Z,85.90
2018-07-09T07:14:19.947Z,86.70
2018-07-09T07:16:48.338Z,86.50
2018-07-09T07:19:16.883Z,87.10
2018-07-09T07:21:45.243Z,87.70
2018-07-09T07:24:13.808Z,87.80
2018-07-09T07:26:42.421Z,87.60
2018-07-09T07:29:10.900Z,87.60
2018-07-09T07:31:39.309Z,87.60
2018-07-09T07:34:07.742Z,87.40
2018-07-09T07:36:36.391Z,86.80
2018-07-09T07:39:05.035Z,86.50
2018-07-09T07:41:33.452Z,85.60
2018-07-09T07:44:01.855Z,85.50
2018-07-09T07:46:30.606Z,85.00
2018-07-09T07:48:59.010Z,84.80
2018-07-09T07:51:28.961Z,84.20
2018-07-09T07:53:57.462Z,84.60
2018-07-09T07:58:54.000Z,84.00
2018-07-09T08:01:22.459Z,83.80
2018-07-09T08:03:50.899Z,83.70
2018-07-09T08:06:20.126Z,83.80
2018-07-09T08:08:48.743Z,83.70
2018-07-09T08:11:17.179Z,83.60
2018-07-09T08:13:45.821Z,83.50
2018-07-09T08:16:14.255Z,83.00
2018-07-09T08:18:42.747Z,82.40
2018-07-09T08:21:11.134Z,82.10
2018-07-09T08:23:39.585Z,81.60
2018-07-09T08:26:07.995Z,80.30
2018-07-09T08:28:36.416Z,79.90
2018-07-09T08:31:04.896Z,79.40
2018-07-09T08:33:33.320Z,79.20
2018-07-09T08:36:01.733Z,79.00
2018-07-09T08:38:30.128Z,79.10
2018-07-09T08:40:58.492Z,81.20
2018-07-09T08:43:26.898Z,81.90
2018-07-09T08:45:55.532Z,82.40
2018-07-09T08:48:23.928Z,81.80
2018-07-09T08:50:52.373Z,81.80
2018-07-09T08:53:20.704Z,80.80
2018-07-09T08:55:49.086Z,80.20
2018-07-09T08:58:17.469Z,79.80
2018-07-09T09:00:45.844Z,78.80
2018-07-09T09:03:14.248Z,78.50
2018-07-09T09:05:42.600Z,79.00
2018-07-09T09:08:11.736Z,78.60
2018-07-09T09:10:40.623Z,78.10
2018-07-09T09:13:08.984Z,77.60
2018-07-09T09:15:37.394Z,77.50
2018-07-09T09:18:05.848Z,77.70
2018-07-09T09:20:34.211Z,77.80
2018-07-09T09:23:02.606Z,78.10
2018-07-09T09:25:31.071Z,78.40
2018-07-09T09:27:59.748Z,78.70
2018-07-09T09:30:28.952Z,79.40
2018-07-09T09:32:57.578Z,79.50
2018-07-09T09:35:26.046Z,80.10
2018-07-09T09:37:54.537Z,80.10
2018-07-09T09:40:23.169Z,80.60
2018-07-09T09:42:51.824Z,80.70
2018-07-09T09:45:20.499Z,80.50
2018-07-09T09:47:48.925Z,80.20
2018-07-09T09:50:17.532Z,80.70
2018-07-09T09:52:45.900Z,80.80
2018-07-09T09:55:14.280Z,81.80
2018-07-09T09:57:42.698Z,82.50
2018-07-09T10:00:11.060Z,82.40
2018-07-09T10:02:39.547Z,81.90
2018-07-09T10:05:07.900Z,81.90
2018-07-09T10:07:36.364Z,81.90
2018-07-09T10:10:04.779Z,81.90
2018-07-09T10:12:33.204Z,82.00
2018-07-09T10:15:01.635Z,82.00
2018-07-09T10:17:29.985Z,82.20
2018-07-09T10:19:58.404Z,82.80
2018-07-09T10:22:26.824Z,83.30
2018-07-09T10:24:55.179Z,83.70
2018-07-09T10:27:23.586Z,84.40
2018-07-09T10:29:52.005Z,84.20
2018-07-09T10:32:20.402Z,83.00
2018-07-09T10:34:48.826Z,82.90
2018-07-09T10:37:18.056Z,82.50
2018-07-09T10:39:46.530Z,82.30
2018-07-09T10:42:15.217Z,82.20
2018-07-09T10:44:43.615Z,82.20
2018-07-09T10:47:12.649Z,82.20
2018-07-09T10:49:41.071Z,82.00
2018-07-09T10:52:09.497Z,82.10
2018-07-09T10:54:37.981Z,82.30
2018-07-09T10:57:06.444Z,83.00
2018-07-09T10:59:34.913Z,83.90
2018-07-09T11:04:31.534Z,85.00
2018-07-09T11:07:00.145Z,85.10
2018-07-09T11:09:28.696Z,85.10
2018-07-09T11:11:57.282Z,85.10
2018-07-09T11:14:25.692Z,85.30
2018-07-09T11:17:01.413Z,85.00
2018-07-09T11:19:29.832Z,85.10
2018-07-09T11:21:58.260Z,85.00
2018-07-09T11:24:26.657Z,85.20
2018-07-09T11:26:55.049Z,85.50
2018-07-09T11:29:23.590Z,85.60
2018-07-09T11:31:51.867Z,85.20
2018-07-09T11:34:20.281Z,85.00
2018-07-09T11:36:48.736Z,85.10
2018-07-09T11:39:17.126Z,85.40
2018-07-09T11:41:45.595Z,85.10
2018-07-09T11:44:14.062Z,85.20
2018-07-09T11:46:42.445Z,84.80
2018-07-09T11:49:10.820Z,84.60
2018-07-09T11:51:39.273Z,83.80
2018-07-09T11:54:07.671Z,83.50
2018-07-09T11:56:36.351Z,82.70
2018-07-09T11:59:04.807Z,81.60
2018-07-09T12:01:33.166Z,81.40
2018-07-09T12:06:29.643Z,80.50
2018-07-09T12:08:58.182Z,81.10
2018-07-09T12:11:26.656Z,81.10
2018-07-09T12:13:55.044Z,81.80
2018-07-09T12:16:23.444Z,81.70
2018-07-09T12:18:51.815Z,83.20
2018-07-09T12:23:48.405Z,83.30
2018-07-09T12:26:16.894Z,82.40
2018-07-09T12:28:45.286Z,82.70
2018-07-09T12:31:13.676Z,81.60
2018-07-09T12:33:42.123Z,81.70
2018-07-09T12:36:10.584Z,81.40
2018-07-09T12:38:38.961Z,81.00
2018-07-09T12:41:07.426Z,80.50
2018-07-09T12:43:36.163Z,79.90
2018-07-09T12:46:04.654Z,79.50
2018-07-09T12:48:33.198Z,79.20
2018-07-09T12:51:01.581Z,79.20
2018-07-09T12:53:30.075Z,80.00
2018-07-09T12:55:58.498Z,80.60
2018-07-09T12:58:27.470Z,80.50
2018-07-09T13:00:56.010Z,79.90
2018-07-09T13:03:24.896Z,79.50
2018-07-09T13:05:53.302Z,79.70
2018-07-09T13:08:21.666Z,79.10
2018-07-09T13:10:50.135Z,78.90
2018-07-09T13:13:18.589Z,79.70
2018-07-09T13:15:47.039Z,79.40
2018-07-09T13:18:15.514Z,79.90
2018-07-09T13:20:43.980Z,79.50
2018-07-09T13:23:14.263Z,79.10
2018-07-09T13:25:43.114Z,78.60
2018-07-09T13:28:11.567Z,78.00
2018-07-09T13:30:40.299Z,77.50
2018-07-09T13:35:37.262Z,76.50
2018-07-09T13:38:05.702Z,76.30
2018-07-09T13:40:34.265Z,76.40
2018-07-09T13:43:03.435Z,76.30
2018-07-09T13:45:31.876Z,77.30
2018-07-09T13:48:00.418Z,76.20
2018-07-09T13:50:29.128Z,75.90
2018-07-09T13:52:58.164Z,75.90
2018-07-09T13:55:26.653Z,76.50
2018-07-09T13:57:55.214Z,78.30
2018-07-09T14:00:23.956Z,78.60
2018-07-09T14:02:52.619Z,78.90
2018-07-09T14:05:21.307Z,78.30
2018-07-09T14:07:49.814Z,79.10
2018-07-09T14:10:18.394Z,79.60
2018-07-09T14:12:48.175Z,79.20
2018-07-09T14:15:31.063Z,79.60
2018-07-09T14:18:00.681Z,80.70
2018-07-09T14:20:32.607Z,81.30
2018-07-09T14:23:02.729Z,81.80
2018-07-09T14:25:31.175Z,82.00
2018-07-09T14:27:59.646Z,82.30
2018-07-09T14:30:28.060Z,82.10
2018-07-09T14:32:56.552Z,82.10
2018-07-09T14:35:24.997Z,81.80
2018-07-09T14:37:53.447Z,81.00
2018-07-09T14:40:21.966Z,81.20
2018-07-09T14:42:50.564Z,81.20
2018-07-09T14:45:19.065Z,80.70
2018-07-09T14:47:47.470Z,80.70
2018-07-09T14:50:15.912Z,80.50
2018-07-09T14:52:44.363Z,80.90
2018-07-09T14:55:12.801Z,80.90
2018-07-09T14:57:42.674Z,81.00
2018-07-09T15:00:11.239Z,81.00
2018-07-09T15:02:39.653Z,81.60
2018-07-09T15:05:08.099Z,81.80
2018-07-09T15:07:36.610Z,81.90
2018-07-09T15:10:05.216Z,81.70
2018-07-09T15:12:33.688Z,81.70
2018-07-09T15:15:02.134Z,81.80
2018-07-09T15:17:30.546Z,82.70
2018-07-09T15:19:58.902Z,83.20
2018-07-09T15:22:27.276Z,83.20
2018-07-09T15:24:55.721Z,83.10
2018-07-09T15:27:24.166Z,82.90
2018-07-09T15:29:52.708Z,82.40
2018-07-09T15:32:29.784Z,82.60
2018-07-09T15:34:58.353Z,81.50
2018-07-09T15:37:27.113Z,82.10
2018-07-09T15:39:55.703Z,81.90
2018-07-09T15:42:24.184Z,81.40
2018-07-09T15:44:52.756Z,81.60
2018-07-09T15:47:21.269Z,82.00
2018-07-09T15:49:49.953Z,82.10
2018-07-09T15:52:18.704Z,81.90
2018-07-09T15:54:47.307Z,82.40
2018-07-09T15:57:15.845Z,82.90
2018-07-09T15:59:44.634Z,83.30
2018-07-09T16:02:13.065Z,83.70
2018-07-09T16:04:41.574Z,83.70
2018-07-09T16:07:10.024Z,84.00
2018-07-09T16:09:38.480Z,84.30
2018-07-09T16:12:06.979Z,84.80
2018-07-09T16:14:35.390Z,85.30
2018-07-09T16:17:03.822Z,85.60
2018-07-09T16:19:32.251Z,85.50
2018-07-09T16:22:00.776Z,85.30
2018-07-09T16:24:29.195Z,85.30
2018-07-09T16:26:57.689Z,85.20
2018-07-09T16:29:26.967Z,85.00
2018-07-09T16:31:55.410Z,85.30
2018-07-09T16:36:53.069Z,85.50
2018-07-09T16:39:21.671Z,85.20
2018-07-09T16:44:18.440Z,85.90
2018-07-09T16:46:47.281Z,85.90
2018-07-09T16:49:15.804Z,86.10
2018-07-09T16:51:44.411Z,85.80
2018-07-09T16:54:12.908Z,85.40
2018-07-09T16:56:41.549Z,85.70
2018-07-09T16:59:10.045Z,85.40
2018-07-09T17:01:38.657Z,85.10
2018-07-09T17:04:07.227Z,85.30
2018-07-09T17:06:35.818Z,85.40
2018-07-09T17:09:06.888Z,85.60
2018-07-09T17:11:35.837Z,85.40
2018-07-09T17:14:04.411Z,85.40
2018-07-09T17:16:33.084Z,85.30
2018-07-09T17:19:02.543Z,85.60
2018-07-09T17:21:31.066Z,85.20
2018-07-09T17:24:00.149Z,85.60
2018-07-09T17:26:28.798Z,85.70
2018-07-09T17:28:57.212Z,85.60
2018-07-09T17:31:25.756Z,85.40
2018-07-09T17:33:54.176Z,85.80
2018-07-09T17:38:51.165Z,86.40
2018-07-09T17:41:19.635Z,86.30
2018-07-09T17:43:48.132Z,86.80
2018-07-09T17:46:16.608Z,86.90
2018-07-09T17:48:45.143Z,87.10
2018-07-09T17:51:16.090Z,87.30
2018-07-09T17:56:13.053Z,87.90
2018-07-09T17:58:41.540Z,88.40
2018-07-09T18:01:10.128Z,88.50
2018-07-09T18:03:38.676Z,88.50
2018-07-09T18:06:07.390Z,88.70
2018-07-09T18:08:36.493Z,88.60
2018-07-09T18:11:05.054Z,88.40
2018-07-09T18:13:34.587Z,88.70
2018-07-09T18:16:03.099Z,88.90
2018-07-09T18:18:31.625Z,88.80
2018-07-09T18:21:00.108Z,88.80
2018-07-09T18:23:29.546Z,88.60
2018-07-09T18:25:58.229Z,88.60
2018-07-09T18:28:27.042Z,88.70
2018-07-09T18:30:55.628Z,88.80
2018-07-09T18:33:24.381Z,88.90
2018-07-09T18:35:52.983Z,89.30
2018-07-09T18:38:21.656Z,89.40
2018-07-09T18:40:50.296Z,89.30
2018-07-09T18:43:18.776Z,89.10
2018-07-09T18:45:47.375Z,89.10
2018-07-09T18:48:15.977Z,89.40
2018-07-09T18:50:45.121Z,89.60
2018-07-09T18:53:13.655Z,89.80
2018-07-09T18:55:42.184Z,89.90
2018-07-09T18:58:10.999Z,90.40
2018-07-09T19:00:39.480Z,90.60
2018-07-09T19:03:07.925Z,90.90
2018-07-09T19:05:52.090Z,91.10
2018-07-09T19:08:21.060Z,91.40
2018-07-09T19:13:17.928Z,91.70
2018-07-09T19:15:46.770Z,92.00
2018-07-09T19:18:27.543Z,92.20
2018-07-09T19:21:35.399Z,92.30
2018-07-09T19:24:03.682Z,92.30
2018-07-09T19:26:31.022Z,92.00
2018-07-09T19:28:58.351Z,92.10
2018-07-09T19:31:26.869Z,92.40
2018-07-09T19:33:54.277Z,92.40
2018-07-09T19:36:21.654Z,92.50
2018-07-09T19:38:49.016Z,92.50
2018-07-09T19:41:16.483Z,92.60
2018-07-09T19:43:43.810Z,92.80
2018-07-09T19:46:11.207Z,92.70
2018-07-09T19:48:38.591Z,92.80
2018-07-09T19:51:05.904Z,92.90
2018-07-09T19:53:33.244Z,92.90
2018-07-09T19:56:00.625Z,93.00
2018-07-09T19:58:28.061Z,93.10
2018-07-09T20:00:55.452Z,93.20
2018-07-09T20:03:22.909Z,93.40
2018-07-09T20:05:50.294Z,93.40
2018-07-09T20:08:17.795Z,93.50
2018-07-09T20:10:50.379Z,93.60
2018-07-09T20:13:22.935Z,93.70
2018-07-09T20:15:55.541Z,93.70
2018-07-09T20:18:23.114Z,93.90
2018-07-09T20:20:50.437Z,94.00
2018-07-09T20:23:17.941Z,94.10
2018-07-09T20:25:45.300Z,94.20
2018-07-09T20:28:12.622Z,94.40
2018-07-09T20:30:39.980Z,94.60
2018-07-09T20:33:07.335Z,94.40
2018-07-09T20:35:34.643Z,94.40
2018-07-09T20:38:01.975Z,94.40
2018-07-09T20:40:29.306Z,94.40
2018-07-09T20:42:56.676Z,94.40
2018-07-09T20:45:24.450Z,94.30
2018-07-09T20:47:51.753Z,94.40
2018-07-09T20:50:19.072Z,94.50
2018-07-09T20:52:46.364Z,94.30
2018-07-09T20:55:13.717Z,94.40
2018-07-09T20:57:41.048Z,94.40
2018-07-09T21:00:08.337Z,94.20
2018-07-09T21:05:03.361Z,92.90
2018-07-09T21:07:30.725Z,92.50
2018-07-09T21:09:58.028Z,91.70
2018-07-09T21:12:25.315Z,91.50
2018-07-09T21:14:52.637Z,91.10
2018-07-09T21:17:19.913Z,90.60
2018-07-09T21:19:47.222Z,90.70
2018-07-09T21:22:14.500Z,90.50
2018-07-09T21:24:41.815Z,90.30
2018-07-09T21:27:09.149Z,90.20
2018-07-09T21:29:36.438Z,90.10
2018-07-09T21:32:03.754Z,89.90
2018-07-09T21:34:31.059Z,89.90
2018-07-09T21:36:58.371Z,89.70
2018-07-09T21:39:25.912Z,89.80
2018-07-09T21:41:53.235Z,89.90
2018-07-09T21:44:20.534Z,89.90
2018-07-09T21:46:48.916Z,89.90
2018-07-09T21:49:16.204Z,90.00
2018-07-09T21:51:43.499Z,89.90
2018-07-09T21:54:11.250Z,90.00
2018-07-09T21:56:38.611Z,90.00
2018-07-09T21:59:05.942Z,90.10
2018-07-09T22:01:33.252Z,90.20
2018-07-09T22:04:00.589Z,90.30
2018-07-09T22:06:27.886Z,90.50
2018-07-09T22:08:55.234Z,90.60
2018-07-09T22:11:22.717Z,90.70
2018-07-09T22:13:50.233Z,90.80
2018-07-09T22:16:17.848Z,91.00
2018-07-09T22:18:45.131Z,90.90
2018-07-09T22:21:12.989Z,91.00
2018-07-09T22:23:40.377Z,91.10
2018-07-09T22:26:07.665Z,91.10
2018-07-09T22:28:35.022Z,91.10
2018-07-09T22:31:03.455Z,91.20
2018-07-09T22:33:31.915Z,91.50
2018-07-09T22:36:00.411Z,91.60
2018-07-09T22:38:30.693Z,91.60
2018-07-09T22:40:59.294Z,91.70
2018-07-09T22:45:40.674Z,91.70
2018-07-09T22:48:09.316Z,91.70
2018-07-09T22:50:37.700Z,92.10
2018-07-09T22:53:06.576Z,92.00
2018-07-09T22:55:46.117Z,92.20
2018-07-09T22:58:14.824Z,92.30
2018-07-09T23:00:43.237Z,92.40
2018-07-09T23:03:17.924Z,92.50
2018-07-09T23:05:47.023Z,92.70
2018-07-09T23:08:16.852Z,92.90
2018-07-09T23:13:05.604Z,93.00
2018-07-09T23:15:50.555Z,93.10
2018-07-09T23:18:30.440Z,93.60
2018-07-09T23:23:07.120Z,93.70
2018-07-09T23:25:34.401Z,93.70
2018-07-09T23:28:01.727Z,93.70
2018-07-09T23:30:29.026Z,93.80
2018-07-09T23:32:56.316Z,93.90
2018-07-09T23:35:23.692Z,94.10
2018-07-09T23:37:51.003Z,94.00
2018-07-09T23:40:18.358Z,94.00
2018-07-09T23:42:45.717Z,94.00
2018-07-09T23:45:13.020Z,93.90
2018-07-09T23:47:40.322Z,93.70
2018-07-09T23:50:07.638Z,93.70
2018-07-09T23:52:34.958Z,93.70
2018-07-09T23:55:02.269Z,93.70
2018-07-09T23:59:48.046Z,93.40
